Terminal Aerodrome Forecast
Issued by NWS

Home | Current Version | Previous Version | Text Only | Print | Product List | Glossary Off
Versions: 1 2 3 4 5 6 7 8 9 10 11 12 13 14 15 16 17 18 19 20 21 22 23 24 25 26 27 28 29 30 31 32 33 34 35

000
FTUS43 KLOT 170900 AAA
TAFORD
TAF AMD
KORD 170900Z 1709/1812 23008KT P6SM FEW200
     FM171200 26010KT P6SM FEW050
     FM171500 27014G20KT P6SM BKN040
     FM171800 28018G27KT P6SM OVC035
     FM180100 32014G21KT P6SM OVC035
     FM180600 33012G17KT P6SM BKN035=

USA.gov is the U.S. government's official web portal to all federal, state and local government web resources and services.